createdAt,value
2019-04-01T00:03:52.435Z,102289.44
2019-04-01T00:08:55.181Z,102282.87
2019-04-01T00:13:57.905Z,102289.04
2019-04-01T00:19:03.385Z,102282.31
2019-04-01T00:24:05.339Z,102284.88
2019-04-01T00:29:08.154Z,102283.56
2019-04-01T00:34:10.888Z,102279.19
2019-04-01T00:39:13.686Z,102281.22
2019-04-01T00:44:16.400Z,102291.17
2019-04-01T00:49:19.125Z,102278.11
2019-04-01T00:54:22.428Z,102273.60
2019-04-01T00:59:25.343Z,102272.22
2019-04-01T01:04:28.090Z,102275.36
2019-04-01T01:09:30.855Z,102268.46
2019-04-01T01:14:33.655Z,102264.60
2019-04-01T01:19:36.398Z,102264.57
2019-04-01T01:24:39.105Z,102263.12
2019-04-01T01:29:41.836Z,102257.16
2019-04-01T01:34:44.553Z,102257.50
2019-04-01T01:39:47.296Z,102257.61
2019-04-01T01:44:50.029Z,102264.90
2019-04-01T01:49:52.719Z,102256.11
2019-04-01T01:54:55.568Z,102253.86
2019-04-01T01:59:58.423Z,102247.77
2019-04-01T02:05:01.130Z,102254.20
2019-04-01T02:10:04.524Z,102248.83
2019-04-01T02:15:07.606Z,102239.16
2019-04-01T02:20:10.453Z,102242.02
2019-04-01T02:25:13.144Z,102240.89
2019-04-01T02:30:15.844Z,102231.30
2019-04-01T02:35:18.529Z,102230.73
2019-04-01T02:40:22.144Z,102227.27
2019-04-01T02:45:25.232Z,102224.05
2019-04-01T02:50:27.930Z,102222.04
2019-04-01T02:55:30.686Z,102219.11
2019-04-01T03:00:33.513Z,102223.73
2019-04-01T03:05:36.223Z,102217.25
2019-04-01T03:10:38.944Z,102220.27
2019-04-01T03:15:41.663Z,102212.86
2019-04-01T03:20:44.367Z,102209.44
2019-04-01T03:25:47.100Z,102215.20
2019-04-01T03:30:49.803Z,102212.20
2019-04-01T03:35:53.349Z,102208.66
2019-04-01T03:40:56.088Z,102207.89
2019-04-01T03:45:58.799Z,102210.64
2019-04-01T03:51:01.568Z,102213.10
2019-04-01T03:56:04.651Z,102214.39
2019-04-01T04:01:07.481Z,102209.01
2019-04-01T04:06:10.253Z,102214.77
2019-04-01T04:11:12.977Z,102213.17
2019-04-01T04:16:15.896Z,102216.94
2019-04-01T04:21:18.704Z,102208.23
2019-04-01T04:26:21.394Z,102203.70
2019-04-01T04:31:24.141Z,102204.48
2019-04-01T04:36:26.850Z,102199.28
2019-04-01T04:41:29.582Z,102202.37
2019-04-01T04:46:32.322Z,102206.69
2019-04-01T04:51:35.061Z,102208.81
2019-04-01T04:56:37.871Z,102202.78
2019-04-01T05:01:40.751Z,102201.19
2019-04-01T05:06:43.475Z,102204.33
2019-04-01T05:11:46.252Z,102197.00
2019-04-01T05:16:49.052Z,102202.59
2019-04-01T05:21:53.129Z,102202.70
2019-04-01T05:26:58.471Z,102210.56
2019-04-01T05:32:03.578Z,102196.74
2019-04-01T05:37:08.894Z,102208.97
2019-04-01T05:42:11.329Z,102215.37
2019-04-01T05:47:14.125Z,102215.52
2019-04-01T05:52:16.843Z,102218.60
2019-04-01T05:57:19.566Z,102219.20
2019-04-01T06:02:22.274Z,102222.09
2019-04-01T06:07:25.955Z,102228.22
2019-04-01T06:12:29.232Z,102228.07
2019-04-01T06:17:32.042Z,102232.02
2019-04-01T06:22:34.745Z,102239.61
2019-04-01T06:27:37.445Z,102235.67
2019-04-01T06:32:40.399Z,102235.34
2019-04-01T06:37:43.123Z,102235.50
2019-04-01T06:42:45.952Z,102240.95
2019-04-01T06:47:48.676Z,102239.19
2019-04-01T06:52:51.442Z,102231.55
2019-04-01T06:57:56.086Z,102237.77
2019-04-01T07:03:10.499Z,102131.20
2019-04-01T07:08:15.590Z,102248.45
2019-04-01T07:13:23.591Z,102237.06
2019-04-01T07:18:34.224Z,102240.55
2019-04-01T07:23:41.669Z,102236.26
2019-04-01T07:28:51.140Z,102233.48
2019-04-01T07:33:53.912Z,102238.70
2019-04-01T07:38:56.705Z,102241.39
2019-04-01T07:43:59.391Z,102234.93
2019-04-01T07:49:02.085Z,102238.42
2019-04-01T07:54:04.788Z,102244.59
2019-04-01T07:59:07.588Z,102238.55
2019-04-01T08:04:10.285Z,102245.59
2019-04-01T08:09:13.028Z,102236.89
2019-04-01T08:14:17.278Z,102232.56
2019-04-01T08:19:20.116Z,102229.10
2019-04-01T08:24:23.807Z,102221.69
2019-04-01T08:29:30.349Z,102229.06
2019-04-01T08:34:31.965Z,102229.00
2019-04-01T08:39:36.502Z,102225.51
2019-04-01T08:44:40.885Z,102205.94
2019-04-01T08:49:56.714Z,102214.09
2019-04-01T08:55:09.820Z,102214.44
2019-04-01T09:00:27.144Z,102209.70
2019-04-01T09:05:34.949Z,102201.27
2019-04-01T09:10:43.203Z,102207.16
2019-04-01T09:15:51.340Z,102201.47
2019-04-01T09:21:00.971Z,102131.28
2019-04-01T09:26:07.683Z,102205.27
2019-04-01T09:31:14.186Z,102190.86
2019-04-01T09:36:25.140Z,102185.56
2019-04-01T09:41:28.274Z,102179.30
2019-04-01T09:46:30.960Z,102165.06
2019-04-01T09:51:47.549Z,102161.89
2019-04-01T09:56:50.512Z,102157.30
2019-04-01T10:02:06.771Z,102155.45
2019-04-01T10:07:16.226Z,102148.98
2019-04-01T10:12:48.403Z,102138.63
2019-04-01T10:17:51.544Z,102125.34
2019-04-01T10:22:54.363Z,102114.19
2019-04-01T10:27:58.365Z,102116.83
2019-04-01T10:33:02.593Z,102102.53
2019-04-01T10:38:05.527Z,102108.49
2019-04-01T10:43:08.213Z,102092.75
2019-04-01T10:48:10.940Z,102073.73
2019-04-01T10:53:13.742Z,102074.41
2019-04-01T10:58:16.661Z,102062.95
2019-04-01T11:03:19.403Z,102052.88
2019-04-01T11:08:22.153Z,102043.44
2019-04-01T11:13:24.822Z,102042.97
2019-04-01T11:18:27.937Z,102039.56
2019-04-01T11:23:30.620Z,102034.30
2019-04-01T11:28:34.677Z,102027.75
2019-04-01T11:33:37.559Z,102021.41
2019-04-01T11:38:40.222Z,102004.95
2019-04-01T11:43:42.919Z,102005.96
2019-04-01T11:48:45.757Z,102004.92
2019-04-01T11:53:48.539Z,101999.78
2019-04-01T11:58:51.234Z,101999.09
2019-04-01T12:03:53.913Z,101987.23
2019-04-01T12:08:56.597Z,101973.89
2019-04-01T12:13:59.291Z,101967.91
2019-04-01T12:19:01.993Z,101958.34
2019-04-01T12:24:04.733Z,101957.52
2019-04-01T12:29:07.511Z,101948.13
2019-04-01T12:34:10.419Z,101948.61
2019-04-01T12:39:13.119Z,101927.89
2019-04-01T12:44:15.843Z,101921.98
2019-04-01T12:49:18.527Z,101928.58
2019-04-01T12:54:21.216Z,101910.45
2019-04-01T12:59:24.374Z,101902.48
2019-04-01T13:04:27.216Z,101894.98
2019-04-01T13:09:29.914Z,101879.74
2019-04-01T13:14:32.596Z,101875.10
2019-04-01T13:19:35.289Z,101866.52
2019-04-01T13:24:37.999Z,101853.53
2019-04-01T13:29:40.690Z,101842.38
2019-04-01T13:34:45.049Z,101829.87
2019-04-01T13:39:48.107Z,101832.24
2019-04-01T13:44:51.545Z,101817.59
2019-04-01T13:49:54.827Z,101819.13
2019-04-01T13:54:57.583Z,101799.77
2019-04-01T14:00:00.288Z,101795.62
2019-04-01T14:05:05.928Z,101790.42
2019-04-01T14:10:08.760Z,101772.66
2019-04-01T14:15:12.423Z,101770.13
2019-04-01T14:20:15.240Z,101764.34
2019-04-01T14:25:17.928Z,101763.13
2019-04-01T14:30:21.463Z,101750.95
2019-04-01T14:35:24.569Z,101742.41
2019-04-01T14:40:27.277Z,101727.94
2019-04-01T14:45:29.959Z,101708.81
2019-04-01T14:50:32.700Z,101696.69
2019-04-01T14:55:35.804Z,101683.91
2019-04-01T15:00:38.735Z,101681.39
2019-04-01T15:05:41.458Z,101678.22
2019-04-01T15:10:44.233Z,101660.78
2019-04-01T15:15:47.261Z,101652.59
2019-04-01T15:20:49.948Z,101645.71
2019-04-01T15:25:54.407Z,101633.34
2019-04-01T15:30:57.349Z,101629.58
2019-04-01T15:36:00.044Z,101629.05
2019-04-01T15:41:02.753Z,101620.64
2019-04-01T15:46:06.378Z,101608.98
2019-04-01T15:51:09.606Z,101597.53
2019-04-01T15:56:12.673Z,101591.66
2019-04-01T16:01:18.073Z,101597.48
2019-04-01T16:06:21.231Z,101590.41
2019-04-01T16:11:24.167Z,101582.66
2019-04-01T16:16:26.937Z,101570.55
2019-04-01T16:21:31.409Z,101559.34
2019-04-01T16:26:34.231Z,101555.21
2019-04-01T16:31:36.906Z,101548.67
2019-04-01T16:36:39.607Z,101547.08
2019-04-01T16:41:42.296Z,101545.20
2019-04-01T16:46:44.963Z,101548.85
2019-04-01T16:51:47.655Z,101549.23
2019-04-01T16:56:50.366Z,101547.14
2019-04-01T17:01:53.165Z,101544.66
2019-04-01T17:06:55.888Z,101541.39
2019-04-01T17:11:59.245Z,101543.94
2019-04-01T17:17:02.194Z,101532.80
2019-04-01T17:22:04.890Z,101538.34
2019-04-01T17:27:11.905Z,101529.41
2019-04-01T17:32:14.591Z,101531.80
2019-04-01T17:37:17.265Z,101527.84
2019-04-01T17:42:19.991Z,101522.45
2019-04-01T17:47:27.031Z,101522.59
2019-04-01T17:52:28.124Z,101526.66
2019-04-01T17:57:30.839Z,101527.85
2019-04-01T18:02:33.531Z,101520.65
2019-04-01T18:07:36.964Z,101516.01
2019-04-01T18:12:39.647Z,101517.63
2019-04-01T18:17:42.333Z,101511.37
2019-04-01T18:22:45.041Z,101503.89
2019-04-01T18:27:47.838Z,101498.93
2019-04-01T18:32:54.796Z,101505.37
2019-04-01T18:37:55.487Z,101507.39
2019-04-01T18:43:00.005Z,101506.06
2019-04-01T18:48:02.901Z,101511.91
2019-04-01T18:53:07.167Z,101510.53
2019-04-01T18:58:10.139Z,101510.83
2019-04-01T19:03:12.827Z,101510.94
2019-04-01T19:08:15.521Z,101513.73
2019-04-01T19:13:18.226Z,101503.06
2019-04-01T19:18:20.895Z,101516.22
2019-04-01T19:23:23.589Z,101515.44
2019-04-01T19:28:26.271Z,101509.81
2019-04-01T19:33:29.025Z,101505.85
2019-04-01T19:38:31.735Z,101505.08
2019-04-01T19:43:34.411Z,101502.66
2019-04-01T19:48:37.112Z,101508.83
2019-04-01T19:53:39.798Z,101506.84
2019-04-01T19:58:42.502Z,101499.03
2019-04-01T20:03:45.199Z,101497.94
2019-04-01T20:08:49.685Z,101489.00
2019-04-01T20:13:54.977Z,101493.91
2019-04-01T20:18:57.221Z,101488.75
2019-04-01T20:23:59.907Z,101474.84
2019-04-01T20:29:02.693Z,101460.73
2019-04-01T20:34:05.376Z,101455.53
2019-04-01T20:39:08.506Z,101445.64
2019-04-01T20:44:12.263Z,101444.80
2019-04-01T20:49:15.170Z,101434.02
2019-04-01T20:54:17.868Z,101427.23
2019-04-01T20:59:20.580Z,101425.62
2019-04-01T21:04:23.270Z,101412.16
2019-04-01T21:09:25.950Z,101407.46
2019-04-01T21:14:28.627Z,101401.97
2019-04-01T21:19:31.345Z,101393.86
2019-04-01T21:24:34.442Z,101380.64
2019-04-01T21:29:37.235Z,101373.81
2019-04-01T21:34:40.252Z,101369.33
2019-04-01T21:39:43.440Z,101366.42
2019-04-01T21:44:47.032Z,101355.97
2019-04-01T21:49:49.929Z,101346.94
2019-04-01T21:54:52.660Z,101334.50
2019-04-01T21:59:55.388Z,101323.10
2019-04-01T22:04:58.078Z,101321.87
2019-04-01T22:10:00.779Z,101310.73
2019-04-01T22:15:03.793Z,101303.15
2019-04-01T22:20:06.793Z,101298.83
2019-04-01T22:25:09.482Z,101297.58
2019-04-01T22:30:12.379Z,101286.34
2019-04-01T22:35:15.173Z,101289.31
2019-04-01T22:40:17.931Z,101282.39
2019-04-01T22:45:21.054Z,101281.50
2019-04-01T22:50:23.855Z,101271.70
2019-04-01T22:55:28.077Z,101272.28
2019-04-01T23:00:31.063Z,101262.73
2019-04-01T23:05:33.759Z,101252.81
2019-04-01T23:10:36.439Z,101245.23
2019-04-01T23:15:39.120Z,101236.09
2019-04-01T23:20:41.842Z,101236.48
2019-04-01T23:25:44.523Z,101226.09
2019-04-01T23:30:49.608Z,101218.33
2019-04-01T23:35:52.331Z,101217.84
2019-04-01T23:40:55.029Z,101212.78
2019-04-01T23:45:57.722Z,101210.22
2019-04-01T23:51:00.405Z,101198.08
2019-04-01T23:56:03.293Z,101192.89
